Time;durP1;ratioP1;P1;durP2;ratioP2;P2;SDS_P1;SDS_P2;PMS_P1;PMS_P2;Temp;Humidity;BMP_temperature;BMP_pressure;BME280_temperature;BME280_humidity;BME280_pressure;Samples;Min_cycle;Max_cycle;Signal;HPM_P1;HPM_P2
2023/09/09 00:02:03;;;;;;;;;;;20.80;1.00;;;;;;5071632;28;19925;-73
2023/09/09 00:04:28;;;;;;;;;;;20.80;1.00;;;;;;5071667;28;19936;-73
2023/09/09 00:06:56;;;;;;;;;;;20.80;99.90;;;;;;5071583;28;20310;-73
2023/09/09 00:09:21;;;;;;;;;;;20.80;1.00;;;;;;5071590;28;19928;-74
2023/09/09 00:11:47;;;;;;;;;;;20.80;1.00;;;;;;5071586;28;20346;-73
2023/09/09 00:14:12;;;;;;;;;;;20.70;99.90;;;;;;5071948;28;19955;-74
2023/09/09 00:16:38;;;;;;;;;;;20.70;99.90;;;;;;5071228;28;19936;-73
2023/09/09 00:19:03;;;;;;;;;;;20.60;1.00;;;;;;5070985;28;19925;-73
2023/09/09 00:21:29;;;;;;;;;;;20.60;99.90;;;;;;5070944;28;20015;-73
2023/09/09 00:23:55;;;;;;;;;;;20.60;99.90;;;;;;5071333;28;19924;-73
2023/09/09 00:26:20;;;;;;;;;;;20.60;1.00;;;;;;5070933;28;20706;-73
2023/09/09 00:28:46;;;;;;;;;;;20.60;1.00;;;;;;5071374;28;19951;-74
2023/09/09 00:31:11;;;;;;;;;;;20.50;1.00;;;;;;5070688;28;19932;-73
2023/09/09 00:33:37;;;;;;;;;;;20.50;99.90;;;;;;5053510;28;19930;-73
2023/09/09 00:36:03;;;;;;;;;;;20.50;19.60;;;;;;5071189;28;20457;-74
2023/09/09 00:38:28;;;;;;;;;;;20.50;99.90;;;;;;5070454;28;19925;-73
2023/09/09 00:41:10;;;;;;;;;;;20.40;1.00;;;;;;5070061;28;19924;-73
2023/09/09 00:43:37;;;;;;;;;;;20.50;1.00;;;;;;5053061;28;20394;-73
2023/09/09 00:46:03;;;;;;;;;;;20.40;97.70;;;;;;5074466;28;19924;-73
2023/09/09 00:48:29;;;;;;;;;;;20.40;99.90;;;;;;5079995;28;19931;-74
2023/09/09 00:50:55;;;;;;;;;;;20.40;99.90;;;;;;5083251;28;19971;-73
2023/09/09 00:53:20;;;;;;;;;;;20.40;99.90;;;;;;5070283;28;20015;-73
2023/09/09 00:55:46;;;;;;;;;;;20.40;99.90;;;;;;5070113;28;20489;-73
2023/09/09 00:58:12;;;;;;;;;;;20.30;99.90;;;;;;5080232;28;20015;-73
2023/09/09 01:00:38;;;;;;;;;;;20.30;99.90;;;;;;5089813;28;19923;-74
2023/09/09 01:03:05;;;;;;;;;;;20.30;1.00;;;;;;5044966;28;20008;-73
2023/09/09 01:05:31;;;;;;;;;;;20.30;1.00;;;;;;5069537;28;19925;-74
2023/09/09 01:07:56;;;;;;;;;;;20.20;4.80;;;;;;5070102;28;19931;-74
2023/09/09 01:10:23;;;;;;;;;;;20.20;96.70;;;;;;5070149;28;19925;-74
2023/09/09 01:12:50;;;;;;;;;;;20.20;99.90;;;;;;5073114;28;20379;-73
2023/09/09 01:15:16;;;;;;;;;;;20.20;99.90;;;;;;5072494;28;19924;-74
2023/09/09 01:17:42;;;;;;;;;;;20.20;99.90;;;;;;5070103;28;19981;-73
2023/09/09 01:20:13;;;;;;;;;;;20.10;99.90;;;;;;5069712;28;19977;-73
2023/09/09 01:22:43;;;;;;;;;;;20.10;99.90;;;;;;5070009;28;19928;-73
2023/09/09 01:25:12;;;;;;;;;;;20.10;99.90;;;;;;5069783;28;20011;-73
2023/09/09 01:27:37;;;;;;;;;;;20.10;99.90;;;;;;5069848;28;20407;-74
2023/09/09 01:30:03;;;;;;;;;;;20.00;99.90;;;;;;5079370;28;19931;-73
2023/09/09 01:32:29;;;;;;;;;;;20.00;99.90;;;;;;5070207;28;19936;-73
2023/09/09 01:34:55;;;;;;;;;;;20.00;99.90;;;;;;5070158;28;20402;-73
2023/09/09 01:37:21;;;;;;;;;;;20.00;1.00;;;;;;5066221;28;20347;-73
2023/09/09 01:39:47;;;;;;;;;;;20.00;1.00;;;;;;5073065;28;19938;-74
2023/09/09 01:42:12;;;;;;;;;;;19.90;1.00;;;;;;5070002;28;19925;-73
2023/09/09 01:44:38;;;;;;;;;;;19.90;1.00;;;;;;5069296;28;19932;-73
2023/09/09 01:47:05;;;;;;;;;;;19.90;1.00;;;;;;5072760;28;19932;-74
2023/09/09 01:49:30;;;;;;;;;;;19.90;1.00;;;;;;5068929;28;20432;-73
2023/09/09 01:51:56;;;;;;;;;;;19.90;1.00;;;;;;5081429;28;19924;-73
2023/09/09 01:54:21;;;;;;;;;;;19.90;1.00;;;;;;5078976;28;19925;-74
2023/09/09 01:56:47;;;;;;;;;;;19.90;1.00;;;;;;5069982;28;19925;-74
2023/09/09 01:59:12;;;;;;;;;;;19.80;1.00;;;;;;5059703;28;19928;-73
2023/09/09 02:01:38;;;;;;;;;;;19.80;17.50;;;;;;5052577;28;20481;-73
2023/09/09 02:04:03;;;;;;;;;;;19.80;70.40;;;;;;5068346;28;19932;-73
2023/09/09 02:06:29;;;;;;;;;;;19.80;78.80;;;;;;5061962;28;19994;-73
2023/09/09 02:08:55;;;;;;;;;;;19.80;99.90;;;;;;5075008;28;20275;-74
2023/09/09 02:11:20;;;;;;;;;;;19.70;99.90;;;;;;5073951;28;19930;-74
2023/09/09 02:13:46;;;;;;;;;;;19.70;99.90;;;;;;5074043;28;20582;-74
2023/09/09 02:16:11;;;;;;;;;;;19.70;99.90;;;;;;5073192;28;19924;-74
2023/09/09 02:18:37;;;;;;;;;;;19.70;99.90;;;;;;5077138;28;19990;-73
2023/09/09 02:21:06;;;;;;;;;;;19.70;99.90;;;;;;5073268;28;20286;-73
2023/09/09 02:23:32;;;;;;;;;;;19.70;99.90;;;;;;5073747;28;19924;-73
2023/09/09 02:25:58;;;;;;;;;;;19.70;99.90;;;;;;5063827;28;19968;-73
2023/09/09 02:28:23;;;;;;;;;;;19.70;99.90;;;;;;5055027;28;19924;-73
2023/09/09 02:30:49;;;;;;;;;;;19.60;99.90;;;;;;5071924;28;20422;-73
2023/09/09 02:33:15;;;;;;;;;;;19.60;99.90;;;;;;5037174;28;19931;-73
2023/09/09 02:35:42;;;;;;;;;;;19.60;99.90;;;;;;5073317;28;20358;-73
2023/09/09 02:38:07;;;;;;;;;;;19.60;99.90;;;;;;5072552;28;19987;-73
2023/09/09 02:40:33;;;;;;;;;;;19.60;99.90;;;;;;5073881;28;19964;-73
2023/09/09 02:42:58;;;;;;;;;;;19.50;99.90;;;;;;5047480;28;19924;-73
2023/09/09 02:45:24;;;;;;;;;;;19.50;99.90;;;;;;5065766;28;20393;-73
2023/09/09 02:47:50;;;;;;;;;;;19.50;99.90;;;;;;5075444;28;20054;-73
2023/09/09 02:50:15;;;;;;;;;;;19.50;99.90;;;;;;5070942;28;19932;-73
2023/09/09 02:52:41;;;;;;;;;;;19.50;99.90;;;;;;5074649;28;19925;-73
2023/09/09 02:55:06;;;;;;;;;;;19.40;99.90;;;;;;5073966;28;20459;-73
2023/09/09 02:57:32;;;;;;;;;;;19.40;99.90;;;;;;5080234;28;20015;-73
2023/09/09 02:59:57;;;;;;;;;;;19.40;99.90;;;;;;5075549;28;19924;-73
2023/09/09 03:02:23;;;;;;;;;;;19.40;99.90;;;;;;5072126;28;20007;-73
2023/09/09 03:04:49;;;;;;;;;;;19.40;99.90;;;;;;5072692;28;19950;-74
2023/09/09 03:07:14;;;;;;;;;;;19.30;99.90;;;;;;5054748;28;20550;-73
2023/09/09 03:09:40;;;;;;;;;;;19.30;99.90;;;;;;5072463;28;19934;-73
2023/09/09 03:12:06;;;;;;;;;;;19.30;99.90;;;;;;5074544;28;19932;-74
2023/09/09 03:14:32;;;;;;;;;;;19.30;99.90;;;;;;5054432;28;19924;-73
2023/09/09 03:17:01;;;;;;;;;;;19.30;99.90;;;;;;5072287;28;19929;-73
2023/09/09 03:19:26;;;;;;;;;;;19.30;99.90;;;;;;5052499;28;20465;-73
2023/09/09 03:21:52;;;;;;;;;;;19.20;99.90;;;;;;5075313;28;19928;-73
2023/09/09 03:24:17;;;;;;;;;;;19.20;99.90;;;;;;5074871;28;19924;-74
2023/09/09 03:26:43;;;;;;;;;;;19.20;99.90;;;;;;5037731;28;19947;-73
2023/09/09 03:29:08;;;;;;;;;;;19.10;99.90;;;;;;5062088;28;19994;-73
2023/09/09 03:31:34;;;;;;;;;;;19.10;99.90;;;;;;5071938;28;20549;-74
2023/09/09 03:34:00;;;;;;;;;;;19.20;99.90;;;;;;5071643;28;20341;-73
2023/09/09 03:36:25;;;;;;;;;;;19.10;99.90;;;;;;5051491;28;19933;-74
2023/09/09 03:38:51;;;;;;;;;;;19.10;99.90;;;;;;5072195;28;19979;-73
2023/09/09 03:41:16;;;;;;;;;;;19.10;99.90;;;;;;5072644;28;19967;-73
2023/09/09 03:43:42;;;;;;;;;;;19.10;99.90;;;;;;5072681;28;20059;-73
2023/09/09 03:46:07;;;;;;;;;;;19.10;99.90;;;;;;5053895;28;19928;-74
2023/09/09 03:48:33;;;;;;;;;;;19.00;99.90;;;;;;5053990;28;20042;-73
2023/09/09 03:51:01;;;;;;;;;;;19.00;99.90;;;;;;5053692;28;19924;-73
2023/09/09 03:53:27;;;;;;;;;;;19.10;99.90;;;;;;5071277;28;19931;-73
2023/09/09 03:55:53;;;;;;;;;;;19.10;99.90;;;;;;5071533;28;19924;-73
2023/09/09 03:58:18;;;;;;;;;;;19.00;99.90;;;;;;5053342;28;19931;-73
2023/09/09 04:00:46;;;;;;;;;;;19.00;99.90;;;;;;5081804;28;19924;-73
2023/09/09 04:03:12;;;;;;;;;;;19.00;99.90;;;;;;5071625;28;19928;-73
2023/09/09 04:05:38;;;;;;;;;;;19.00;99.90;;;;;;5053207;28;19935;-73
2023/09/09 04:08:08;;;;;;;;;;;19.00;1.00;;;;;;5071224;28;19924;-73
2023/09/09 04:10:34;;;;;;;;;;;19.00;1.00;;;;;;5067008;28;20386;-73
2023/09/09 04:12:59;;;;;;;;;;;19.00;1.00;;;;;;5071316;28;19931;-73
2023/09/09 04:15:25;;;;;;;;;;;18.90;1.00;;;;;;5071295;28;19950;-74
2023/09/09 04:17:51;;;;;;;;;;;18.90;1.00;;;;;;5061814;28;20015;-74
2023/09/09 04:20:16;;;;;;;;;;;18.90;1.00;;;;;;5066034;28;19931;-73
2023/09/09 04:22:42;;;;;;;;;;;18.90;1.00;;;;;;5071957;28;20023;-73
2023/09/09 04:25:07;;;;;;;;;;;18.90;1.00;;;;;;5067212;28;19936;-73
2023/09/09 04:27:33;;;;;;;;;;;18.90;1.00;;;;;;5063405;28;19925;-74
2023/09/09 04:29:58;;;;;;;;;;;18.80;1.00;;;;;;5070013;28;19931;-73
2023/09/09 04:32:24;;;;;;;;;;;18.80;1.00;;;;;;5070071;28;20341;-73
2023/09/09 04:34:49;;;;;;;;;;;18.80;1.00;;;;;;5071106;28;20470;-73
2023/09/09 04:37:16;;;;;;;;;;;18.80;1.00;;;;;;5070675;28;20019;-73
2023/09/09 04:39:41;;;;;;;;;;;18.80;1.00;;;;;;5030951;28;19925;-73
2023/09/09 04:42:07;;;;;;;;;;;18.80;1.00;;;;;;5062074;28;19924;-73
2023/09/09 04:44:32;;;;;;;;;;;18.80;1.00;;;;;;5069779;28;19970;-73
2023/09/09 04:46:58;;;;;;;;;;;18.70;1.00;;;;;;5077837;28;19964;-73
2023/09/09 04:49:24;;;;;;;;;;;18.70;1.00;;;;;;5076124;28;20023;-73
2023/09/09 04:51:49;;;;;;;;;;;18.70;1.00;;;;;;5055604;28;19924;-74
2023/09/09 04:54:15;;;;;;;;;;;18.70;1.00;;;;;;5075307;28;19924;-73
2023/09/09 04:56:40;;;;;;;;;;;18.70;1.00;;;;;;5063318;28;20421;-74
2023/09/09 04:59:06;;;;;;;;;;;18.70;1.00;;;;;;5064084;28;20003;-74
2023/09/09 05:01:31;;;;;;;;;;;18.70;1.00;;;;;;5069395;28;19924;-73
2023/09/09 05:03:57;;;;;;;;;;;18.70;1.00;;;;;;5076546;28;19924;-74
2023/09/09 05:06:23;;;;;;;;;;;18.70;1.00;;;;;;5089280;28;19924;-73
2023/09/09 05:08:49;;;;;;;;;;;18.70;1.00;;;;;;5083430;28;19950;-73
2023/09/09 05:11:15;;;;;;;;;;;18.70;1.00;;;;;;5064865;28;20006;-73
2023/09/09 05:13:40;;;;;;;;;;;18.70;1.00;;;;;;5064851;28;19925;-73
2023/09/09 05:16:06;;;;;;;;;;;18.70;1.00;;;;;;5069317;28;19928;-73
2023/09/09 05:18:31;;;;;;;;;;;18.70;1.00;;;;;;5089085;28;20498;-73
2023/09/09 05:20:57;;;;;;;;;;;18.70;1.00;;;;;;5089005;28;20549;-73
2023/09/09 05:23:22;;;;;;;;;;;18.70;1.00;;;;;;5056148;28;20011;-74
2023/09/09 05:25:48;;;;;;;;;;;18.70;1.00;;;;;;5057326;28;21004;-73
2023/09/09 05:28:13;;;;;;;;;;;18.70;1.00;;;;;;5062290;28;19928;-74
2023/09/09 05:30:40;;;;;;;;;;;18.70;1.00;;;;;;5075878;28;19939;-74
2023/09/09 05:33:05;;;;;;;;;;;18.70;1.00;;;;;;5069299;28;19924;-74
2023/09/09 05:35:31;;;;;;;;;;;18.70;1.00;;;;;;5069896;28;19934;-73
2023/09/09 05:37:57;;;;;;;;;;;18.70;1.00;;;;;;5087665;28;20301;-73
2023/09/09 05:40:22;;;;;;;;;;;18.80;1.00;;;;;;5076954;28;19980;-73
2023/09/09 05:42:48;;;;;;;;;;;18.80;1.00;;;;;;5051512;28;19928;-74
2023/09/09 05:45:14;;;;;;;;;;;18.80;1.00;;;;;;5069067;28;19935;-73
2023/09/09 05:47:40;;;;;;;;;;;18.80;1.00;;;;;;5069758;28;19932;-74
2023/09/09 05:50:07;;;;;;;;;;;18.90;1.00;;;;;;5059677;28;19925;-74
2023/09/09 05:52:33;;;;;;;;;;;18.90;1.00;;;;;;5070298;28;19972;-73
2023/09/09 05:54:59;;;;;;;;;;;19.00;1.00;;;;;;5040927;28;20023;-74
2023/09/09 05:57:24;;;;;;;;;;;19.10;1.00;;;;;;5072251;28;20019;-74
2023/09/09 05:59:50;;;;;;;;;;;19.10;1.00;;;;;;5060514;28;19925;-73
2023/09/09 06:02:15;;;;;;;;;;;19.20;1.00;;;;;;5071402;28;20023;-74
2023/09/09 06:04:41;;;;;;;;;;;19.20;1.00;;;;;;5070745;28;20002;-73
2023/09/09 06:07:06;;;;;;;;;;;19.30;1.00;;;;;;5073921;28;20347;-73
2023/09/09 06:09:32;;;;;;;;;;;19.30;1.00;;;;;;5072565;28;20437;-73
2023/09/09 06:11:57;;;;;;;;;;;19.40;1.00;;;;;;5069893;28;19943;-73
2023/09/09 06:14:23;;;;;;;;;;;19.40;1.00;;;;;;5046616;28;19932;-73
2023/09/09 06:16:48;;;;;;;;;;;19.50;1.00;;;;;;5075365;28;19924;-73
2023/09/09 06:19:14;;;;;;;;;;;19.50;1.00;;;;;;5054523;28;19987;-73
2023/09/09 06:21:39;;;;;;;;;;;19.60;1.00;;;;;;5075454;28;19934;-73
2023/09/09 06:24:07;;;;;;;;;;;19.70;1.00;;;;;;5072421;28;19932;-73
2023/09/09 06:26:33;;;;;;;;;;;19.70;1.00;;;;;;5062606;28;19931;-74
2023/09/09 06:28:59;;;;;;;;;;;19.80;1.00;;;;;;5038258;28;19925;-74
2023/09/09 06:31:25;;;;;;;;;;;19.80;1.00;;;;;;5067010;28;19930;-73
2023/09/09 06:33:50;;;;;;;;;;;19.90;1.00;;;;;;5073405;28;20044;-74
2023/09/09 06:36:16;;;;;;;;;;;19.90;1.00;;;;;;5070042;28;20002;-73
2023/09/09 06:38:42;;;;;;;;;;;20.00;1.00;;;;;;5057753;28;19979;-74
2023/09/09 06:41:07;;;;;;;;;;;20.10;1.00;;;;;;5067360;28;20445;-73
2023/09/09 06:43:33;;;;;;;;;;;20.10;1.00;;;;;;5069382;28;20433;-73
2023/09/09 06:46:01;;;;;;;;;;;20.20;1.00;;;;;;5069263;28;19939;-73
2023/09/09 06:48:28;;;;;;;;;;;20.20;1.00;;;;;;5069689;28;19924;-73
2023/09/09 06:50:54;;;;;;;;;;;20.30;1.00;;;;;;5069013;28;19928;-73
2023/09/09 06:53:20;;;;;;;;;;;20.30;1.00;;;;;;5084703;28;19947;-73
2023/09/09 06:55:46;;;;;;;;;;;20.40;1.00;;;;;;5072912;28;19924;-73
2023/09/09 06:58:12;;;;;;;;;;;20.40;1.00;;;;;;5073854;28;20011;-74
2023/09/09 07:00:38;;;;;;;;;;;20.50;1.00;;;;;;5073855;28;19932;-73
2023/09/09 07:03:03;;;;;;;;;;;20.60;1.00;;;;;;5073030;28;19924;-74
2023/09/09 07:05:32;;;;;;;;;;;20.60;1.00;;;;;;5073183;28;19971;-73
2023/09/09 07:07:58;;;;;;;;;;;20.70;1.00;;;;;;5073178;28;19943;-73
2023/09/09 07:10:23;;;;;;;;;;;20.70;1.00;;;;;;5064261;28;20387;-74
2023/09/09 07:12:49;;;;;;;;;;;20.80;1.00;;;;;;5048217;28;20426;-74
2023/09/09 07:15:15;;;;;;;;;;;20.90;1.00;;;;;;5069753;28;19924;-75
2023/09/09 07:17:43;;;;;;;;;;;20.90;1.00;;;;;;5069298;28;19936;-75
2023/09/09 07:20:09;;;;;;;;;;;21.00;1.00;;;;;;5052128;28;20399;-74
2023/09/09 07:22:34;;;;;;;;;;;21.10;1.00;;;;;;5032378;28;19931;-75
2023/09/09 07:25:00;;;;;;;;;;;21.10;99.90;;;;;;5066266;28;19924;-74
2023/09/09 07:27:25;;;;;;;;;;;21.20;99.90;;;;;;5037294;28;20339;-74
2023/09/09 07:29:51;;;;;;;;;;;21.20;99.90;;;;;;5054277;28;20387;-74
2023/09/09 07:32:16;;;;;;;;;;;21.20;99.90;;;;;;5075783;28;20390;-74
2023/09/09 07:34:42;;;;;;;;;;;21.30;99.90;;;;;;5076676;28;19924;-74
2023/09/09 07:37:07;;;;;;;;;;;21.40;99.90;;;;;;5072331;28;19931;-74
2023/09/09 07:39:43;;;;;;;;;;;21.40;99.90;;;;;;5080132;28;19925;-74
2023/09/09 07:42:08;;;;;;;;;;;21.50;99.90;;;;;;5073481;28;19933;-73
2023/09/09 07:44:34;;;;;;;;;;;21.60;99.90;;;;;;5039008;28;20279;-72
2023/09/09 07:46:59;;;;;;;;;;;21.60;99.90;;;;;;5045791;28;19928;-71
2023/09/09 07:49:25;;;;;;;;;;;21.70;99.90;;;;;;5061602;28;19924;-73
2023/09/09 07:51:50;;;;;;;;;;;21.80;99.90;;;;;;5071842;28;20058;-73
2023/09/09 07:54:16;;;;;;;;;;;21.90;99.90;;;;;;5070086;28;19995;-73
2023/09/09 07:57:55;;;;;;;23.90;19.92;;;22.10;99.90;;;;;;5125342;27;20375;-72
2023/09/09 08:00:21;;;;;;;21.40;19.13;;;22.20;99.90;;;;;;5126422;28;20407;-72
2023/09/09 08:02:47;;;;;;;21.70;18.48;;;22.20;99.90;;;;;;5108832;28;20454;-72
2023/09/09 08:05:13;;;;;;;20.40;18.30;;;22.30;99.90;;;;;;5103849;28;20842;-71
2023/09/09 08:07:39;;;;;;;20.13;18.05;;;22.40;99.90;;;;;;5103526;28;20512;-73
2023/09/09 08:10:08;;;;;;;21.25;18.52;;;22.50;99.90;;;;;;5105936;28;20563;-73
2023/09/09 08:12:34;;;;;;;23.02;19.00;;;22.60;99.90;;;;;;5105622;28;20769;-73
2023/09/09 08:15:08;;;;;;;21.17;18.98;;;22.70;99.90;;;;;;5108076;28;20408;-73
2023/09/09 08:17:34;;;;;;;23.02;19.42;;;22.70;99.90;;;;;;5104832;28;21040;-73
2023/09/09 08:19:59;;;;;;;21.00;18.90;;;22.80;99.90;;;;;;5105337;28;20406;-73
2023/09/09 08:22:28;;;;;;;22.17;19.87;;;22.80;99.90;;;;;;5105269;28;20401;-73
2023/09/09 08:24:54;;;;;;;22.58;19.83;;;22.90;99.90;;;;;;5105619;28;20417;-73
2023/09/09 08:27:19;;;;;;;22.42;20.20;;;22.90;99.90;;;;;;5113745;27;20405;-73
2023/09/09 08:29:45;;;;;;;22.03;19.60;;;23.10;99.90;;;;;;5103876;28;20428;-74
2023/09/09 08:32:10;;;;;;;20.95;18.75;;;23.10;99.90;;;;;;5103557;28;20409;-74
2023/09/09 08:34:37;;;;;;;23.60;19.73;;;23.20;99.90;;;;;;5104659;28;20425;-74
2023/09/09 08:37:03;;;;;;;20.58;18.40;;;23.30;99.90;;;;;;5105380;28;20421;-74
2023/09/09 08:39:28;;;;;;;21.50;19.20;;;23.40;99.90;;;;;;5104546;28;20447;-73
2023/09/09 08:42:05;;;;;;;21.50;18.92;;;23.50;99.90;;;;;;5094346;28;20815;-73
2023/09/09 08:44:49;;;;;;;21.90;18.10;;;23.50;99.90;;;;;;5103792;28;20409;-73
2023/09/09 08:47:19;;;;;;;21.10;18.80;;;23.60;99.90;;;;;;5102934;28;20417;-74
2023/09/09 08:49:47;;;;;;;20.83;18.23;;;23.70;99.90;;;;;;5104840;28;20436;-73
2023/09/09 08:52:21;;;;;;;20.15;18.00;;;23.80;99.90;;;;;;5105405;28;20794;-74
2023/09/09 08:54:48;;;;;;;20.75;18.63;;;23.90;99.90;;;;;;5103401;28;20413;-74
2023/09/09 08:57:13;;;;;;;20.83;18.63;;;24.00;99.90;;;;;;5119328;27;20435;-74
2023/09/09 08:59:41;;;;;;;19.60;17.60;;;24.10;26.90;;;;;;5125170;27;20411;-73
2023/09/09 09:02:09;;;;;;;20.48;18.27;;;24.10;18.80;;;;;;5125298;27;20411;-73
2023/09/09 09:04:36;;;;;;;21.33;18.58;;;24.30;7.40;;;;;;5106939;28;20400;-73
2023/09/09 09:07:02;;;;;;;20.85;18.45;;;24.40;1.00;;;;;;5124050;27;20399;-73
2023/09/09 09:09:29;;;;;;;22.20;19.17;;;24.50;1.00;;;;;;5092296;28;20396;-74
2023/09/09 09:11:59;;;;;;;20.85;18.15;;;24.60;1.00;;;;;;5111734;27;20396;-74
2023/09/09 09:14:24;;;;;;;21.42;19.10;;;24.70;1.00;;;;;;5110958;28;20408;-74
2023/09/09 09:16:51;;;;;;;23.07;19.00;;;24.90;99.90;;;;;;5110852;27;20424;-74
2023/09/09 09:19:29;;;;;;;23.92;18.38;;;25.50;1.00;;;;;;5110763;27;20444;-73
2023/09/09 09:21:56;;;;;;;20.13;18.02;;;26.40;99.90;;;;;;5110111;27;20743;-74
2023/09/09 09:24:25;;;;;;;20.27;17.70;;;27.40;99.90;;;;;;5111076;27;20476;-74
2023/09/09 09:26:51;;;;;;;20.08;16.40;;;28.10;99.90;;;;;;5092085;28;20458;-73
2023/09/09 09:29:16;;;;;;;18.42;16.02;;;28.70;99.90;;;;;;5111140;27;20894;-74
2023/09/09 09:31:53;;;;;;;17.65;15.77;;;29.30;14.30;;;;;;5091988;28;20412;-74
2023/09/09 09:34:20;;;;;;;16.70;15.00;;;30.00;99.90;;;;;;5093628;27;20407;-74
2023/09/09 09:36:46;;;;;;;18.88;16.88;;;30.40;34.70;;;;;;5111312;27;20420;-73
2023/09/09 09:39:12;;;;;;;17.20;15.48;;;30.80;1.00;;;;;;5111184;27;21199;-74
2023/09/09 09:41:43;;;;;;;15.73;14.20;;;31.10;1.00;;;;;;5111003;27;20406;-74
2023/09/09 09:44:19;;;;;;;16.23;14.63;;;31.50;1.00;;;;;;5126368;27;20472;-74
2023/09/09 09:47:02;;;;;;;14.73;13.02;;;31.80;99.90;;;;;;5130783;27;20512;-74
2023/09/09 09:49:37;;;;;;;;;;;31.90;99.90;;;;;;5131610;27;20039;-73
2023/09/09 09:52:03;;;;;;;;;;;32.20;99.90;;;;;;5130776;27;19959;-74
2023/09/09 09:54:30;;;;;;;;;;;32.50;99.90;;;;;;5106320;28;20009;-74
2023/09/09 09:56:59;;;;;;;;;;;32.80;99.90;;;;;;5125208;27;19919;-75
2023/09/09 09:59:25;;;;;;;;;;;33.10;99.90;;;;;;5123841;27;20392;-74
2023/09/09 10:01:50;;;;;;;;;;;33.30;99.90;;;;;;5106164;27;20436;-74
2023/09/09 10:04:17;;;;;;;;;;;33.50;99.90;;;;;;5119699;27;20026;-74
2023/09/09 10:06:45;;;;;;;;;;;33.60;99.90;;;;;;5116515;27;19923;-74
2023/09/09 10:09:26;;;;;;;14.18;12.77;;;33.70;99.90;;;;;;5119995;27;19920;-74
2023/09/09 10:12:02;;;;;;;15.90;14.33;;;34.10;99.90;;;;;;5112063;27;20400;-74
2023/09/09 10:14:29;;;;;;;15.40;13.90;;;34.40;99.90;;;;;;5109858;27;20432;-74
2023/09/09 10:16:56;;;;;;;18.00;16.40;;;34.70;99.90;;;;;;5109744;27;20511;-74
2023/09/09 10:19:23;;;;;;;17.45;15.65;;;34.90;99.90;;;;;;5110312;27;20491;-74
2023/09/09 10:21:50;;;;;;;16.58;14.88;;;35.10;99.90;;;;;;5100142;27;20815;-74
2023/09/09 10:24:18;;;;;;;16.08;14.57;;;35.20;99.90;;;;;;5110804;27;20407;-74
2023/09/09 10:26:46;;;;;;;17.00;15.32;;;35.20;99.90;;;;;;5109841;27;20416;-74
2023/09/09 10:29:13;;;;;;;15.45;13.95;;;35.30;99.90;;;;;;5112052;27;20399;-74
2023/09/09 10:31:42;;;;;;;13.80;12.40;;;35.30;99.90;;;;;;5110193;27;20418;-74
2023/09/09 10:34:09;;;;;;;14.57;13.13;;;35.30;99.90;;;;;;5109410;28;20491;-75
2023/09/09 10:36:36;;;;;;;;;;;35.60;99.90;;;;;;5109891;27;20122;-74
2023/09/09 10:39:01;;;;;;;;;;;35.80;99.90;;;;;;5113318;27;20626;-74
2023/09/09 10:41:27;;;;;;;;;;;35.90;99.90;;;;;;5113107;27;19927;-74
2023/09/09 10:43:53;;;;;;;;;;;36.00;99.90;;;;;;5111091;28;19924;-74
2023/09/09 10:46:31;;;;;;;;;;;36.10;99.90;;;;;;5118162;27;19920;-74
2023/09/09 10:48:57;;;;;;;14.73;12.20;;;36.10;99.90;;;;;;5129080;27;19923;-74
2023/09/09 10:51:27;;;;;;;13.02;11.70;;;36.20;99.90;;;;;;5110340;28;20131;-74
2023/09/09 10:54:06;;;;;;;;;;;36.20;99.90;;;;;;5110252;27;20040;-74
2023/09/09 10:56:31;;;;;;;;;;;36.20;99.90;;;;;;5111297;27;19934;-74
2023/09/09 10:58:57;;;;;;;12.95;10.80;;;36.30;99.90;;;;;;5110601;27;20887;-74
2023/09/09 11:01:24;;;;;;;13.18;9.57;;;36.30;99.90;;;;;;5110346;28;20042;-74
2023/09/09 11:03:51;;;;;;;11.18;10.05;;;36.40;99.90;;;;;;5110584;27;20740;-74
2023/09/09 11:06:20;;;;;;;;;;;36.50;99.90;;;;;;5110726;27;20047;-74
2023/09/09 11:08:47;;;;;;;10.70;8.68;;;36.50;99.90;;;;;;5091760;28;19977;-74
2023/09/09 11:11:14;;;;;;;11.35;10.25;;;36.60;99.90;;;;;;5109192;28;20499;-74
2023/09/09 11:13:48;;;;;;;13.10;8.70;;;36.70;99.90;;;;;;5108021;28;20501;-74
2023/09/09 11:16:37;;;;;;;10.77;9.57;;;36.70;99.90;;;;;;5110132;27;20458;-74
2023/09/09 11:19:18;;;;;;;12.43;9.77;;;36.80;99.90;;;;;;5101000;27;20491;-74
2023/09/09 11:21:45;;;;;;;9.73;8.47;;;36.80;99.90;;;;;;5111914;27;21013;-74
2023/09/09 11:24:12;;;;;;;11.90;8.80;;;36.90;99.90;;;;;;5110671;27;20465;-74
2023/09/09 11:26:39;;;;;;;10.13;8.05;;;36.80;99.90;;;;;;5111345;28;21276;-74
2023/09/09 11:29:05;;;;;;;11.25;10.13;;;37.00;99.90;;;;;;5109794;27;20433;-74
2023/09/09 11:31:31;;;;;;;11.90;9.35;;;37.00;99.90;;;;;;5093015;28;20523;-74
2023/09/09 11:33:58;;;;;;;10.15;8.85;;;37.00;99.90;;;;;;5110633;27;20471;-74
2023/09/09 11:36:24;;;;;;;8.27;7.47;;;37.10;99.90;;;;;;5113432;27;20539;-74
2023/09/09 11:38:50;;;;;;;8.82;7.93;;;37.10;99.90;;;;;;5111815;27;20043;-75
2023/09/09 11:41:19;;;;;;;9.48;7.35;;;37.10;99.90;;;;;;5111439;27;20105;-74
2023/09/09 11:43:46;;;;;;;9.48;7.72;;;37.20;99.90;;;;;;5097669;28;20069;-74
2023/09/09 11:46:12;;;;;;;;;;;37.20;99.90;;;;;;5108727;27;20118;-75
2023/09/09 11:48:37;;;;;;;;;;;37.30;99.90;;;;;;5110196;28;19971;-74
2023/09/09 11:51:03;;;;;;;14.05;12.38;;;37.30;99.90;;;;;;5109561;28;19971;-74
2023/09/09 11:53:29;;;;;;;16.17;14.57;;;37.40;99.90;;;;;;5109963;28;20035;-74
2023/09/09 11:55:56;;;;;;;15.75;14.25;;;37.60;99.90;;;;;;5091245;28;20653;-74
2023/09/09 11:58:22;;;;;;;;;;;37.50;99.90;;;;;;5109625;28;20051;-74
2023/09/09 12:00:48;;;;;;;;;;;37.50;99.90;;;;;;5111017;28;20397;-74
2023/09/09 12:03:20;;;;;;;;;;;37.40;99.90;;;;;;5110957;28;19926;-74
2023/09/09 12:05:48;;;;;;;;;;;37.50;99.90;;;;;;5109592;28;19920;-74
2023/09/09 12:08:13;;;;;;;15.57;13.00;;;37.20;99.90;;;;;;5110276;28;19920;-74
2023/09/09 12:10:39;;;;;;;14.57;11.18;;;36.80;99.90;;;;;;5108888;28;20035;-74
2023/09/09 12:13:05;;;;;;;;;;;36.60;99.90;;;;;;5109954;28;20043;-74
2023/09/09 12:15:31;;;;;;;;;;;36.30;99.90;;;;;;5110307;28;19920;-74
2023/09/09 12:17:56;;;;;;;;;;;35.70;99.90;;;;;;5110515;28;19920;-74
2023/09/09 12:20:22;;;;;;;;;;;35.50;99.90;;;;;;5109507;28;20015;-73
2023/09/09 12:22:50;;;;;;;;;;;35.80;99.90;;;;;;5109060;28;19920;-74
2023/09/09 12:25:27;;;;;;;;;;;36.00;99.90;;;;;;5109202;28;19924;-74
2023/09/09 12:27:53;;;;;;;10.07;9.00;;;36.10;99.90;;;;;;5107211;28;19927;-74
2023/09/09 12:30:39;;;;;;;9.60;8.15;;;36.20;99.90;;;;;;5109805;28;20382;-73
2023/09/09 12:33:14;;;;;;;;;;;36.20;99.90;;;;;;5108008;28;20548;-74
2023/09/09 12:35:47;;;;;;;8.63;7.13;;;36.40;99.90;;;;;;5109541;28;19931;-76
2023/09/09 12:38:14;;;;;;;;;;;36.70;99.90;;;;;;5108023;28;20035;-75
2023/09/09 12:40:47;;;;;;;;;;;36.80;99.90;;;;;;5111152;28;20038;-75
2023/09/09 12:43:12;;;;;;;;;;;36.90;99.90;;;;;;5092199;28;20010;-75
2023/09/09 12:45:45;;;;;;;;;;;37.00;99.90;;;;;;5113147;28;20061;-76
2023/09/09 12:48:11;;;;;;;;;;;37.00;99.90;;;;;;5113720;28;20004;-75
2023/09/09 12:50:36;;;;;;;;;;;37.10;99.90;;;;;;5113247;28;19983;-76
2023/09/09 12:53:02;;;;;;;;;;;37.20;99.90;;;;;;5113027;28;20003;-75
2023/09/09 12:55:28;;;;;;;;;;;37.20;99.90;;;;;;5113131;27;20304;-73
2023/09/09 12:57:53;;;;;;;;;;;37.30;99.90;;;;;;5113319;28;20407;-74
2023/09/09 13:00:19;;;;;;;;;;;37.30;99.90;;;;;;5112735;27;19920;-74
2023/09/09 13:02:44;;;;;;;;;;;37.40;99.90;;;;;;5113226;28;20006;-74
2023/09/09 13:05:10;;;;;;;;;;;37.30;99.90;;;;;;5114561;27;19927;-74
2023/09/09 13:07:36;;;;;;;;;;;37.20;99.90;;;;;;5129348;27;19975;-74
2023/09/09 13:10:01;;;;;;;;;;;37.30;99.90;;;;;;5117468;27;19920;-74
2023/09/09 13:12:27;;;;;;;;;;;37.40;99.90;;;;;;5112845;28;19920;-74
2023/09/09 13:14:52;;;;;;;;;;;37.60;99.90;;;;;;5114176;27;19927;-74
2023/09/09 13:17:18;;;;;;;;;;;37.70;99.90;;;;;;5112483;28;19920;-74
2023/09/09 13:19:44;;;;;;;;;;;37.90;99.90;;;;;;5112089;27;19927;-74
2023/09/09 13:22:10;;;;;;;;;;;38.00;99.90;;;;;;5112403;27;19919;-74
2023/09/09 13:24:35;;;;;;;;;;;38.20;99.90;;;;;;5114005;27;19923;-74
2023/09/09 13:27:01;;;;;;;;;;;38.30;99.90;;;;;;5111169;28;19919;-74
2023/09/09 13:29:26;;;;;;;;;;;38.50;99.90;;;;;;5110802;27;19923;-75
2023/09/09 13:31:52;;;;;;;9.07;7.55;;;38.70;99.90;;;;;;5111610;28;19926;-75
2023/09/09 13:34:18;;;;;;;9.32;6.43;;;38.80;99.90;;;;;;5114822;27;20387;-75
2023/09/09 13:36:43;;;;;;;;;;;38.80;99.90;;;;;;5113896;27;20047;-77
2023/09/09 13:39:09;;;;;;;;;;;38.70;99.80;;;;;;5112938;27;19920;-74
2023/09/09 13:41:34;;;;;;;;;;;38.80;99.90;;;;;;5098654;27;20386;-75
2023/09/09 13:44:00;;;;;;;9.30;6.88;;;38.90;99.50;;;;;;5078860;28;19996;-74
2023/09/09 13:46:26;;;;;;;;;;;39.00;99.20;;;;;;5097770;28;20046;-74
2023/09/09 13:48:51;;;;;;;;;;;38.90;98.70;;;;;;5106932;28;19924;-74
2023/09/09 13:51:17;;;;;;;;;;;39.00;98.30;;;;;;5111727;28;19919;-74